Time;durP1;ratioP1;P1;durP2;ratioP2;P2;SDS_P1;SDS_P2;PMS_P1;PMS_P2;Temp;Humidity;BMP_temperature;BMP_pressure;BME280_temperature;BME280_humidity;BME280_pressure;Samples;Min_cycle;Max_cycle;Signal;HPM_P1;HPM_P2
2021/07/08 00:02:03;;;;;;;5.60;2.55;;;16.80;94.90;;;;;;5889639;40;20105;-77
2021/07/08 00:06:05;;;;;;;7.68;2.92;;;16.40;94.90;;;;;;5888359;40;20034;-76
2021/07/08 00:10:11;;;;;;;8.88;2.78;;;16.70;95.00;;;;;;5886706;40;20518;-75
2021/07/08 00:14:12;;;;;;;4.50;2.85;;;16.70;95.10;;;;;;5887472;40;20437;-76
2021/07/08 00:18:15;;;;;;;4.72;2.58;;;16.70;95.20;;;;;;5887993;40;20564;-75
2021/07/08 00:22:17;;;;;;;5.22;2.70;;;16.60;95.10;;;;;;5886761;40;20061;-76
2021/07/08 00:26:19;;;;;;;6.05;2.60;;;16.60;95.20;;;;;;5890650;40;20070;-80
2021/07/08 00:30:22;;;;;;;;;;;16.50;95.10;;;;;;5883568;40;21642;-75
2021/07/08 00:34:24;;;;;;;3.90;2.00;;;16.40;94.00;;;;;;5874854;40;19950;-76
2021/07/08 00:38:26;;;;;;;6.93;2.72;;;16.40;95.10;;;;;;5888651;40;20091;-75
2021/07/08 00:42:28;;;;;;;6.05;2.20;;;16.30;95.00;;;;;;5889362;40;20123;-75
2021/07/08 00:46:30;;;;;;;7.15;2.70;;;16.30;95.30;;;;;;5886001;40;20082;-75
2021/07/08 00:50:34;;;;;;;6.03;2.20;;;16.40;95.20;;;;;;5887798;40;20102;-77
2021/07/08 00:54:36;;;;;;;5.43;2.85;;;16.30;95.20;;;;;;5889129;40;20088;-76
2021/07/08 00:58:38;;;;;;;6.45;2.30;;;16.30;95.30;;;;;;5881148;40;20078;-76
2021/07/08 01:02:41;;;;;;;4.95;2.80;;;16.40;95.30;;;;;;5886585;40;20097;-80
2021/07/08 01:06:46;;;;;;;5.25;2.90;;;16.20;95.40;;;;;;5886266;40;20126;-76
2021/07/08 01:10:49;;;;;;;6.05;3.35;;;16.40;95.50;;;;;;5889560;40;20041;-76
2021/07/08 01:14:51;;;;;;;5.30;2.70;;;16.30;95.60;;;;;;5877378;40;20102;-75
2021/07/08 01:18:53;;;;;;;6.60;2.65;;;16.30;95.60;;;;;;5886265;40;20056;-76
2021/07/08 01:22:58;;;;;;;5.78;2.60;;;16.30;95.50;;;;;;5873887;40;20578;-74
2021/07/08 01:27:01;;;;;;;7.97;3.50;;;16.30;95.50;;;;;;5881401;40;20105;-75
2021/07/08 01:31:07;;;;;;;8.23;3.13;;;16.30;95.60;;;;;;5882112;40;20321;-81
2021/07/08 01:35:09;;;;;;;9.05;2.67;;;16.30;95.60;;;;;;5874696;40;20537;-76
2021/07/08 01:39:12;;;;;;;8.82;3.33;;;16.20;95.50;;;;;;5880886;40;20056;-79
2021/07/08 01:43:14;;;;;;;6.63;2.88;;;16.20;95.60;;;;;;5882148;40;20054;-76
2021/07/08 01:47:16;;;;;;;4.15;2.40;;;16.10;95.70;;;;;;5886433;40;20114;-77
2021/07/08 01:51:18;;;;;;;;;;;16.10;95.60;;;;;;5887564;40;20095;-75
2021/07/08 01:55:20;;;;;;;11.33;3.60;;;16.10;95.90;;;;;;5886399;40;19945;-76
2021/07/08 01:59:22;;;;;;;8.55;2.97;;;16.10;95.40;;;;;;5883020;40;20576;-75
2021/07/08 02:03:24;;;;;;;4.97;2.92;;;16.10;95.50;;;;;;5889181;40;20048;-75
2021/07/08 02:07:25;;;;;;;5.45;3.15;;;16.10;95.40;;;;;;5888281;40;20081;-75
2021/07/08 02:11:27;;;;;;;6.10;2.88;;;16.10;95.60;;;;;;5886926;40;20086;-76
2021/07/08 02:15:29;;;;;;;8.57;3.42;;;16.00;95.40;;;;;;5883445;40;20066;-75
2021/07/08 02:19:31;;;;;;;10.32;3.22;;;16.00;95.60;;;;;;5885642;40;20042;-78
2021/07/08 02:23:33;;;;;;;5.07;3.20;;;15.90;95.50;;;;;;5878053;40;20152;-77
2021/07/08 02:27:37;;;;;;;;;;;15.90;95.40;;;;;;5886453;40;20067;-75
2021/07/08 02:31:38;;;;;;;5.53;3.03;;;15.90;94.50;;;;;;5885208;40;20017;-75
2021/07/08 02:35:40;;;;;;;9.52;3.33;;;15.80;95.30;;;;;;5871312;40;20083;-78
2021/07/08 02:39:42;;;;;;;6.97;3.00;;;15.70;95.40;;;;;;5878370;40;20515;-77
2021/07/08 02:43:44;;;;;;;;;;;15.70;95.40;;;;;;5883841;40;20477;-75
2021/07/08 02:47:47;;;;;;;5.13;3.00;;;15.70;94.50;;;;;;5877887;40;19945;-76
2021/07/08 02:51:48;;;;;;;7.97;3.80;;;15.60;95.40;;;;;;5886301;40;20042;-76
2021/07/08 02:55:51;;;;;;;7.25;3.30;;;15.60;95.50;;;;;;5877257;40;20042;-77
2021/07/08 02:59:53;;;;;;;5.25;2.70;;;15.60;95.60;;;;;;5873759;40;20058;-77
2021/07/08 03:03:55;;;;;;;;;;;15.50;95.70;;;;;;5884603;40;20082;-75
2021/07/08 03:07:57;;;;;;;6.43;3.30;;;15.50;94.80;;;;;;5883989;40;19934;-78
2021/07/08 03:11:59;;;;;;;6.70;3.15;;;15.40;95.30;;;;;;5878574;40;20034;-75
2021/07/08 03:16:01;;;;;;;6.20;3.65;;;15.40;95.60;;;;;;5877151;40;20053;-75
2021/07/08 03:20:06;;;;;;;7.05;3.63;;;15.40;95.70;;;;;;5889550;40;20042;-74
2021/07/08 03:24:08;;;;;;;5.88;3.15;;;15.50;95.70;;;;;;5884556;40;20046;-74
2021/07/08 03:28:11;;;;;;;7.53;3.50;;;15.40;95.60;;;;;;5885897;40;20512;-75
2021/07/08 03:32:13;;;;;;;8.18;3.65;;;15.30;95.80;;;;;;5885681;40;20042;-74
2021/07/08 03:36:15;;;;;;;;;;;15.30;95.90;;;;;;5876489;40;20030;-74
2021/07/08 03:40:18;;;;;;;8.60;3.67;;;15.30;94.90;;;;;;5886882;40;19949;-74
2021/07/08 03:44:20;;;;;;;5.95;3.40;;;15.20;95.70;;;;;;5887340;40;20404;-73
2021/07/08 03:48:22;;;;;;;7.65;3.30;;;15.30;96.10;;;;;;5878877;40;20085;-74
2021/07/08 03:52:24;;;;;;;6.05;3.50;;;15.30;96.10;;;;;;5871963;40;20050;-73
2021/07/08 03:56:26;;;;;;;9.82;4.20;;;15.40;96.20;;;;;;5879570;40;20050;-73
2021/07/08 04:00:40;;;;;;;7.45;4.10;;;15.50;96.40;;;;;;5886172;40;20090;-73
2021/07/08 04:04:42;;;;;;;6.40;3.50;;;15.70;96.40;;;;;;5885603;40;20058;-74
2021/07/08 04:08:44;;;;;;;7.88;4.18;;;15.90;96.40;;;;;;5886457;40;20348;-73
2021/07/08 04:12:46;;;;;;;9.00;4.80;;;16.10;96.80;;;;;;5880451;40;20065;-74
2021/07/08 04:16:49;;;;;;;8.57;5.20;;;15.30;96.50;;;;;;5889376;40;20068;-74
2021/07/08 04:20:51;;;;;;;;;;;16.60;96.80;;;;;;5886421;40;20042;-74
2021/07/08 04:24:52;;;;;;;7.57;4.57;;;16.70;97.40;;;;;;5887216;40;19945;-74
2021/07/08 04:28:54;;;;;;;7.13;4.30;;;17.00;96.30;;;;;;5890752;40;20066;-75
2021/07/08 04:32:56;;;;;;;9.05;4.32;;;16.80;96.30;;;;;;5890325;40;20635;-76
2021/07/08 04:36:59;;;;;;;10.35;4.40;;;17.00;96.30;;;;;;5888732;40;20080;-76
2021/07/08 04:41:01;;;;;;;12.55;5.32;;;17.10;96.50;;;;;;5887593;40;20073;-75
2021/07/08 04:45:08;;;;;;;9.38;5.22;;;17.10;96.70;;;;;;5891352;40;20065;-77
2021/07/08 04:49:11;;;;;;;11.48;5.60;;;17.30;96.80;;;;;;5889412;40;20062;-75
2021/07/08 04:53:17;;;;;;;8.20;5.25;;;17.50;96.90;;;;;;5882603;40;20087;-76
2021/07/08 04:57:19;;;;;;;11.02;5.35;;;17.70;97.30;;;;;;5891024;40;20457;-76
2021/07/08 05:01:21;;;;;;;12.45;5.28;;;17.90;97.20;;;;;;5892244;40;20054;-75
2021/07/08 05:05:23;;;;;;;8.30;4.72;;;18.30;97.10;;;;;;5888607;40;20054;-74
2021/07/08 05:09:25;;;;;;;7.63;4.45;;;18.50;97.20;;;;;;5886782;40;20105;-73
2021/07/08 05:13:27;;;;;;;11.10;4.90;;;18.70;97.40;;;;;;5887680;40;20046;-72
2021/07/08 05:17:29;;;;;;;8.98;4.13;;;19.10;97.00;;;;;;5890532;40;20089;-77
2021/07/08 05:21:31;;;;;;;11.48;4.13;;;19.40;96.70;;;;;;5889009;40;20473;-77
2021/07/08 05:25:33;;;;;;;7.68;4.25;;;19.30;96.90;;;;;;5875368;40;20061;-77
2021/07/08 05:29:35;;;;;;;5.80;3.65;;;19.30;96.80;;;;;;5889735;40;20488;-77
2021/07/08 05:33:37;;;;;;;6.68;3.63;;;19.30;96.90;;;;;;5888901;40;20421;-77
2021/07/08 05:37:39;;;;;;;9.07;4.18;;;19.20;96.90;;;;;;5888543;40;20041;-78
2021/07/08 05:41:41;;;;;;;;;;;19.50;97.20;;;;;;5881208;40;20066;-77
2021/07/08 05:45:43;;;;;;;8.75;4.80;;;19.70;98.20;;;;;;5888339;40;19967;-77
2021/07/08 05:49:45;;;;;;;6.90;4.40;;;19.00;97.60;;;;;;5887740;40;20527;-77
2021/07/08 05:53:53;;;;;;;8.50;4.57;;;19.00;97.40;;;;;;5879642;40;21047;-77
2021/07/08 05:57:55;;;;;;;7.53;4.72;;;18.90;97.40;;;;;;5882922;40;20051;-77
2021/07/08 06:01:57;;;;;;;9.52;5.00;;;19.10;97.40;;;;;;5889482;40;20054;-80
2021/07/08 06:05:59;;;;;;;;;;;19.10;97.60;;;;;;5891357;40;20069;-78
2021/07/08 06:10:01;;;;;;;9.45;4.40;;;19.10;97.60;;;;;;5892116;40;20271;-77
2021/07/08 06:14:03;;;;;;;9.45;5.00;;;19.20;97.50;;;;;;5882397;40;20046;-77
2021/07/08 06:18:05;;;;;;;9.88;5.35;;;19.20;97.30;;;;;;5890207;40;20050;-77
2021/07/08 06:22:06;;;;;;;12.10;5.20;;;19.20;97.20;;;;;;5886425;40;20082;-77
2021/07/08 06:26:08;;;;;;;;;;;19.30;97.50;;;;;;5884139;40;20042;-76
2021/07/08 06:30:11;;;;;;;8.88;3.40;;;19.40;98.10;;;;;;5883277;40;19937;-77
2021/07/08 06:34:12;;;;;;;8.65;3.47;;;19.50;96.50;;;;;;5888181;40;20239;-77
2021/07/08 06:38:14;;;;;;;;;;;19.70;96.50;;;;;;5889803;40;20112;-77
2021/07/08 06:42:17;;;;;;;7.13;3.10;;;20.10;97.10;;;;;;5887001;40;20133;-77
2021/07/08 06:46:26;;;;;;;7.43;3.30;;;19.70;96.20;;;;;;5887638;40;20065;-78
2021/07/08 06:50:34;;;;;;;8.23;3.10;;;19.70;96.10;;;;;;5882138;40;20050;-78
2021/07/08 06:54:36;;;;;;;8.52;2.80;;;19.70;96.10;;;;;;5891239;40;20099;-77
2021/07/08 06:58:38;;;;;;;7.03;2.92;;;19.80;95.90;;;;;;5887988;40;20914;-77
2021/07/08 07:02:40;;;;;;;9.57;3.05;;;19.90;95.80;;;;;;5887663;40;20064;-77
2021/07/08 07:06:42;;;;;;;;;;;19.90;95.90;;;;;;5889343;40;20065;-77
2021/07/08 07:10:43;;;;;;;7.05;3.30;;;20.10;95.70;;;;;;5891748;40;19945;-78
2021/07/08 07:14:45;;;;;;;10.43;3.00;;;20.00;96.10;;;;;;5887777;40;20053;-77
2021/07/08 07:18:47;;;;;;;;;;;20.00;96.10;;;;;;5894409;40;20062;-82
2021/07/08 07:22:49;;;;;;;9.70;2.83;;;20.00;96.00;;;;;;5892166;40;19945;-78
2021/07/08 07:26:52;;;;;;;7.88;3.00;;;20.00;96.20;;;;;;5893745;40;20048;-78
2021/07/08 07:30:53;;;;;;;;;;;20.00;96.10;;;;;;5880485;40;20052;-77
2021/07/08 07:34:55;;;;;;;8.90;3.20;;;20.00;96.70;;;;;;5895039;40;19970;-78
2021/07/08 07:38:57;;;;;;;10.48;3.40;;;19.90;96.20;;;;;;5884927;40;20061;-78
2021/07/08 07:42:59;;;;;;;;;;;19.90;96.50;;;;;;5886321;40;20061;-78
2021/07/08 07:47:01;;;;;;;11.02;3.47;;;19.90;97.90;;;;;;5892167;40;19969;-77
2021/07/08 07:51:03;;;;;;;10.23;3.72;;;20.00;96.80;;;;;;5890306;40;20066;-77
2021/07/08 07:55:05;;;;;;;;;;;20.00;97.10;;;;;;5894348;40;20041;-78
2021/07/08 07:59:06;;;;;;;9.82;3.85;;;20.00;98.30;;;;;;5880794;40;20148;-78
2021/07/08 08:03:09;;;;;;;7.75;3.47;;;20.00;97.20;;;;;;5884574;40;20054;-78
2021/07/08 08:11:31;;;;;;;12.50;3.63;;;20.00;98.50;;;;;;5891870;40;19938;-78
2021/07/08 08:15:33;;;;;;;;;;;20.10;97.30;;;;;;5885954;40;20110;-77
2021/07/08 08:19:36;;;;;;;;;;;20.20;96.60;;;;;;5887061;40;21514;-77
2021/07/08 08:24:56;;;;;;;6.50;3.00;;;20.20;97.30;;;;;;5980127;39;21099;-76
2021/07/08 08:28:58;;;;;;;10.18;3.65;;;20.30;96.50;;;;;;5970982;39;20842;-76
2021/07/08 08:33:00;;;;;;;7.78;2.92;;;20.70;96.60;;;;;;5969302;39;20051;-77
2021/07/08 08:37:02;;;;;;;;;;;20.30;96.30;;;;;;5970680;39;20048;-76
2021/07/08 08:41:05;;;;;;;9.40;4.50;;;20.30;97.10;;;;;;5971484;39;20015;-76
2021/07/08 08:45:11;;;;;;;12.35;3.88;;;20.40;96.90;;;;;;5983907;39;20028;-77
2021/07/08 08:49:13;;;;;;;9.82;3.40;;;20.40;96.90;;;;;;5975342;39;20051;-76
2021/07/08 08:53:16;;;;;;;;;;;20.50;96.80;;;;;;5986792;39;20632;-76
2021/07/08 08:57:18;;;;;;;8.65;3.33;;;20.50;96.90;;;;;;5978622;39;19968;-77
2021/07/08 09:01:20;;;;;;;8.30;3.75;;;20.60;96.80;;;;;;5986770;39;20094;-76
2021/07/08 09:05:22;;;;;;;8.95;3.10;;;20.70;96.60;;;;;;5986485;39;20047;-75
2021/07/08 09:09:30;;;;;;;;;;;21.00;96.30;;;;;;5978344;39;20085;-76
2021/07/08 09:13:41;;;;;;;7.00;2.47;;;21.20;96.60;;;;;;5988121;39;19943;-78
2021/07/08 09:17:45;;;;;;;8.33;3.13;;;20.90;96.40;;;;;;5989022;39;20052;-77
2021/07/08 09:21:51;;;;;;;5.80;2.50;;;21.10;96.00;;;;;;5987778;39;20062;-76
2021/07/08 09:25:53;;;;;;;7.22;2.50;;;21.40;95.60;;;;;;5985752;39;20473;-76
2021/07/08 09:29:55;;;;;;;;;;;21.50;95.20;;;;;;5985450;39;20130;-76
2021/07/08 09:34:00;;;;;;;5.35;2.22;;;21.60;95.20;;;;;;5982166;39;20347;-77
2021/07/08 09:38:13;;;;;;;8.23;2.50;;;21.80;95.20;;;;;;5974921;39;20600;-76
2021/07/08 09:42:31;;;;;;;9.48;2.45;;;22.00;94.90;;;;;;5976048;39;20043;-76
2021/07/08 09:46:35;;;;;;;8.05;2.28;;;22.10;94.70;;;;;;5957946;39;20072;-77
2021/07/08 09:50:38;;;;;;;7.78;1.75;;;22.20;94.20;;;;;;5960332;39;20080;-77
2021/07/08 09:58:53;;;;;;;5.90;2.22;;;22.40;93.90;;;;;;5973191;39;20062;-77
2021/07/08 10:02:55;;;;;;;8.07;2.40;;;22.40;94.10;;;;;;5975366;39;20118;-76
2021/07/08 10:06:58;;;;;;;8.13;2.30;;;22.60;94.40;;;;;;5976068;39;20035;-76
2021/07/08 10:11:00;;;;;;;4.20;1.83;;;22.80;94.30;;;;;;5976496;39;20037;-77
2021/07/08 10:15:08;;;;;;;7.57;2.75;;;23.00;93.70;;;;;;5974790;39;20340;-76
2021/07/08 10:19:15;;;;;;;5.90;1.90;;;22.80;93.60;;;;;;5977118;39;20572;-76
2021/07/08 10:23:18;;;;;;;4.50;1.60;;;23.00;93.50;;;;;;5973397;39;20028;-76
2021/07/08 10:27:21;;;;;;;4.68;1.65;;;23.80;94.00;;;;;;5974671;39;20893;-76
2021/07/08 10:31:23;;;;;;;9.90;2.15;;;23.20;93.70;;;;;;5974418;39;20101;-76
2021/07/08 10:35:43;;;;;;;7.55;2.58;;;23.30;93.40;;;;;;5976274;39;20036;-77
2021/07/08 10:39:45;;;;;;;9.25;2.08;;;23.40;91.90;;;;;;5971922;39;20063;-76
2021/07/08 10:43:47;;;;;;;5.78;1.67;;;23.60;92.70;;;;;;5975318;39;20569;-76
2021/07/08 10:48:12;;;;;;;;;;;23.50;92.70;;;;;;5980589;39;20056;-77
2021/07/08 10:52:59;;;;;;;6.13;1.50;;;23.60;90.40;;;;;;5978845;39;19943;-76
2021/07/08 10:57:03;;;;;;;5.05;1.40;;;23.70;91.10;;;;;;5979002;39;20047;-76
2021/07/08 11:01:23;;;;;;;5.20;1.92;;;23.60;92.20;;;;;;5974166;39;20074;-76
2021/07/08 11:05:55;;;;;;;7.97;1.60;;;23.60;91.90;;;;;;5976469;39;20044;-77
2021/07/08 11:10:06;;;;;;;6.28;1.75;;;23.70;91.80;;;;;;5977581;39;20079;-76
2021/07/08 11:14:11;;;;;;;8.07;2.00;;;24.00;91.90;;;;;;5974009;39;20460;-76
2021/07/08 11:18:32;;;;;;;5.90;1.85;;;24.10;91.80;;;;;;5963420;39;20037;-76
2021/07/08 11:22:35;;;;;;;;;;;24.30;90.00;;;;;;5956805;39;20051;-76
2021/07/08 11:26:51;;;;;;;4.50;1.77;;;24.20;90.40;;;;;;5954077;39;20415;-75
2021/07/08 11:31:04;;;;;;;6.38;2.03;;;24.40;91.10;;;;;;5956285;39;20114;-77
2021/07/08 11:35:12;;;;;;;7.15;2.05;;;24.40;91.60;;;;;;5953195;39;20500;-76
2021/07/08 11:39:15;;;;;;;6.57;2.30;;;24.50;92.30;;;;;;5960499;39;20064;-78
2021/07/08 11:43:28;;;;;;;7.40;1.98;;;24.60;91.70;;;;;;5953523;39;20059;-77
2021/07/08 11:47:46;;;;;;;4.53;1.83;;;24.50;92.10;;;;;;5958310;39;20094;-79
2021/07/08 11:51:48;;;;;;;5.20;1.80;;;24.50;91.30;;;;;;5966256;39;21927;-81
2021/07/08 11:55:54;;;;;;;8.00;2.25;;;24.60;92.30;;;;;;5981182;39;20390;-77
2021/07/08 11:59:56;;;;;;;6.65;2.10;;;24.50;91.70;;;;;;5973817;39;20576;-76
2021/07/08 12:03:59;;;;;;;7.57;1.70;;;24.40;91.50;;;;;;5974408;39;20105;-78
2021/07/08 12:08:04;;;;;;;7.00;1.88;;;24.90;91.70;;;;;;5974055;39;20094;-76
2021/07/08 12:12:07;;;;;;;8.82;1.63;;;25.00;90.80;;;;;;5974933;39;20289;-76
2021/07/08 12:16:09;;;;;;;7.00;2.03;;;24.80;90.90;;;;;;5974359;39;20090;-76
2021/07/08 12:20:11;;;;;;;7.05;2.08;;;24.70;91.00;;;;;;5973034;39;20068;-75
2021/07/08 12:24:26;;;;;;;8.48;2.15;;;24.70;90.70;;;;;;5974425;39;20054;-78
2021/07/08 12:28:28;;;;;;;7.80;1.75;;;24.80;90.70;;;;;;5963860;39;20051;-75
2021/07/08 12:32:29;;;;;;;5.47;2.10;;;24.80;90.40;;;;;;5973513;39;20036;-76
2021/07/08 12:36:31;;;;;;;7.07;1.80;;;24.60;90.60;;;;;;5971668;39;20048;-76
2021/07/08 12:40:34;;;;;;;6.28;2.15;;;24.20;90.90;;;;;;5972930;39;20457;-76
2021/07/08 12:44:36;;;;;;;6.32;2.30;;;24.10;91.70;;;;;;5972752;39;20066;-76
2021/07/08 12:48:38;;;;;;;4.40;1.45;;;24.20;91.50;;;;;;5972842;39;20116;-77
2021/07/08 12:52:42;;;;;;;9.25;2.08;;;24.30;91.20;;;;;;5974597;39;20067;-78
2021/07/08 12:57:10;;;;;;;7.43;1.48;;;24.50;90.90;;;;;;5969998;39;20063;-78
2021/07/08 13:02:03;;;;;;;4.88;1.10;;;24.50;90.30;;;;;;5971744;39;20339;-76
2021/07/08 13:06:31;;;;;;;4.10;1.17;;;24.20;90.70;;;;;;5966842;39;20230;-75
2021/07/08 13:10:36;;;;;;;5.18;1.30;;;23.80;90.90;;;;;;5969060;39;20054;-76
2021/07/08 13:14:39;;;;;;;3.33;0.73;;;23.40;91.40;;;;;;5959150;39;20044;-75
2021/07/08 13:18:41;;;;;;;1.70;0.55;;;23.20;90.40;;;;;;5955325;39;20036;-81
2021/07/08 13:22:47;;;;;;;3.97;0.50;;;22.80;90.00;;;;;;5957722;39;20106;-74
2021/07/08 13:26:49;;;;;;;2.92;0.63;;;22.40;90.80;;;;;;5968163;39;20056;-77
2021/07/08 13:31:05;;;;;;;1.15;0.20;;;22.00;91.10;;;;;;5966971;39;20070;-75
2021/07/08 13:35:07;;;;;;;0.93;0.30;;;21.60;89.40;;;;;;5957561;39;20050;-75
2021/07/08 13:39:13;;;;;;;2.53;0.40;;;21.30;90.70;;;;;;5964995;39;20064;-77
2021/07/08 13:43:15;;;;;;;0.77;0.35;;;21.20;90.30;;;;;;5963359;39;20044;-76
2021/07/08 13:47:22;;;;;;;;;;;21.50;90.30;;;;;;5960863;39;20502;-76
2021/07/08 13:51:24;;;;;;;1.80;0.60;;;21.00;87.60;;;;;;5963952;39;19940;-77
2021/07/08 13:55:27;;;;;;;3.17;0.60;;;21.10;90.60;;;;;;5961398;39;20050;-76
2021/07/08 13:59:30;;;;;;;1.45;0.60;;;21.20;90.40;;;;;;5965771;39;20048;-77
2021/07/08 14:03:31;;;;;;;1.90;0.70;;;21.30;90.30;;;;;;5966188;39;20052;-76
2021/07/08 14:07:33;;;;;;;4.13;0.70;;;21.50;90.60;;;;;;5959863;39;20300;-78
2021/07/08 14:11:35;;;;;;;3.70;0.70;;;21.50;91.00;;;;;;5959296;39;20304;-76
2021/07/08 14:15:38;;;;;;;4.95;1.15;;;21.40;91.20;;;;;;5960521;39;20047;-76
2021/07/08 14:19:40;;;;;;;4.53;1.00;;;21.40;91.40;;;;;;5970918;39;20523;-76
2021/07/08 14:23:42;;;;;;;;;;;21.40;91.30;;;;;;5955468;39;20092;-75
2021/07/08 14:27:44;;;;;;;3.17;0.70;;;21.50;91.40;;;;;;5956485;39;20254;-77
2021/07/08 14:31:47;;;;;;;3.03;0.80;;;21.50;91.50;;;;;;5965324;39;20519;-82
2021/07/08 14:35:49;;;;;;;2.65;0.90;;;21.80;91.40;;;;;;5977313;39;20052;-76
2021/07/08 14:39:52;;;;;;;3.70;1.10;;;21.80;91.20;;;;;;5961572;39;20390;-76
2021/07/08 14:44:06;;;;;;;3.47;1.25;;;22.10;91.30;;;;;;5968044;39;20052;-81
2021/07/08 14:48:13;;;;;;;2.42;0.82;;;21.80;91.00;;;;;;5969135;39;20098;-77
2021/07/08 14:52:15;;;;;;;2.00;1.00;;;21.70;91.30;;;;;;5978897;39;20048;-76
2021/07/08 14:56:17;;;;;;;3.47;1.20;;;21.70;91.40;;;;;;5969415;39;20132;-76
2021/07/08 15:00:19;;;;;;;4.00;1.20;;;21.80;91.50;;;;;;5972046;39;20047;-77
2021/07/08 15:04:22;;;;;;;3.53;1.45;;;22.00;91.90;;;;;;5975589;39;20140;-76
2021/07/08 15:08:24;;;;;;;3.88;1.45;;;22.30;92.20;;;;;;5973338;39;20059;-77
2021/07/08 15:12:27;;;;;;;5.03;1.27;;;22.00;92.10;;;;;;5965260;39;20291;-76
2021/07/08 15:16:29;;;;;;;;;;;21.80;92.00;;;;;;5972040;39;20063;-78
2021/07/08 15:20:32;;;;;;;5.10;1.50;;;21.70;91.90;;;;;;5973450;39;20513;-78
2021/07/08 15:24:34;;;;;;;4.05;1.70;;;21.70;92.10;;;;;;5967871;39;20064;-81
2021/07/08 15:28:36;;;;;;;5.03;1.60;;;21.70;92.30;;;;;;5973826;39;20068;-79
2021/07/08 15:32:39;;;;;;;5.15;1.70;;;21.70;92.60;;;;;;5972523;39;20083;-78
2021/07/08 15:36:43;;;;;;;3.72;2.17;;;21.80;92.70;;;;;;5972110;39;21767;-77
2021/07/08 15:40:46;;;;;;;6.05;1.90;;;21.90;92.80;;;;;;5974703;39;20064;-79
2021/07/08 15:44:48;;;;;;;5.30;1.90;;;22.30;93.30;;;;;;5972442;39;20051;-80
2021/07/08 15:48:50;;;;;;;6.40;3.03;;;21.90;93.30;;;;;;5971932;39;20044;-75
2021/07/08 15:52:52;;;;;;;4.35;2.28;;;21.90;93.90;;;;;;5971246;39;20059;-75
2021/07/08 15:56:54;;;;;;;5.20;2.10;;;21.90;93.90;;;;;;5971906;39;20038;-76
2021/07/08 16:00:57;;;;;;;4.32;2.30;;;21.80;93.90;;;;;;5968301;39;20586;-74
2021/07/08 16:04:58;;;;;;;;;;;21.70;93.70;;;;;;5967654;39;20040;-75
2021/07/08 16:09:00;;;;;;;6.72;2.60;;;21.50;93.10;;;;;;5972017;39;19963;-75
2021/07/08 16:13:02;;;;;;;;;;;21.40;93.60;;;;;;5972671;39;20055;-77
2021/07/08 16:17:05;;;;;;;5.43;1.48;;;21.30;93.60;;;;;;5972397;39;20256;-76
2021/07/08 16:21:07;;;;;;;5.95;2.08;;;21.30;93.90;;;;;;5971647;39;20652;-76
2021/07/08 16:25:09;;;;;;;4.55;2.22;;;21.20;94.00;;;;;;5958845;39;20408;-77
2021/07/08 16:29:11;;;;;;;4.88;2.22;;;21.20;94.10;;;;;;5974546;39;20362;-77
2021/07/08 16:33:13;;;;;;;3.75;1.70;;;21.10;94.10;;;;;;5969315;39;20113;-77
2021/07/08 16:37:15;;;;;;;5.93;2.08;;;21.20;94.00;;;;;;5965161;39;20513;-77
2021/07/08 16:41:17;;;;;;;5.00;2.40;;;21.40;94.00;;;;;;5970956;39;20098;-76
2021/07/08 16:45:20;;;;;;;4.15;1.80;;;21.50;94.20;;;;;;5973140;39;20076;-79
2021/07/08 16:49:22;;;;;;;3.38;1.73;;;21.60;93.60;;;;;;5984278;39;20059;-77
2021/07/08 16:53:23;;;;;;;4.85;2.25;;;21.70;93.70;;;;;;5974804;39;20076;-77
2021/07/08 16:57:25;;;;;;;5.65;1.90;;;21.90;93.20;;;;;;5973858;39;20063;-78
2021/07/08 17:01:27;;;;;;;4.80;1.70;;;21.90;92.60;;;;;;5974205;39;20074;-79
2021/07/08 17:05:30;;;;;;;5.43;1.90;;;21.80;92.40;;;;;;5973912;39;20052;-79
2021/07/08 17:09:33;;;;;;;6.93;2.28;;;21.90;92.60;;;;;;5975594;39;20087;-77
2021/07/08 17:13:35;;;;;;;4.10;1.40;;;22.00;93.00;;;;;;5974694;39;20040;-77
2021/07/08 17:17:38;;;;;;;4.47;2.10;;;22.00;93.10;;;;;;5976243;39;20211;-77
2021/07/08 17:21:40;;;;;;;4.32;2.05;;;22.10;93.10;;;;;;5973152;39;20133;-77
2021/07/08 17:25:41;;;;;;;;;;;22.10;93.10;;;;;;5974381;39;20426;-76
2021/07/08 17:29:44;;;;;;;5.75;2.13;;;22.10;93.20;;;;;;5981625;39;20428;-78
2021/07/08 17:33:45;;;;;;;7.85;2.40;;;22.20;93.10;;;;;;5971589;39;20076;-78
2021/07/08 17:37:48;;;;;;;4.95;2.55;;;22.30;93.50;;;;;;5973612;39;20055;-79
2021/07/08 17:41:50;;;;;;;6.50;2.58;;;22.30;93.70;;;;;;5964799;39;20056;-80
2021/07/08 17:45:52;;;;;;;7.57;2.53;;;22.30;93.60;;;;;;5974845;39;20048;-78
2021/07/08 17:49:54;;;;;;;5.30;1.88;;;22.30;93.40;;;;;;5973699;39;20067;-79
2021/07/08 17:53:56;;;;;;;5.70;1.73;;;22.30;93.30;;;;;;5972249;39;20043;-77
2021/07/08 17:57:58;;;;;;;5.30;1.70;;;22.30;92.50;;;;;;5975574;39;20117;-78
2021/07/08 18:02:00;;;;;;;6.97;2.60;;;22.20;92.30;;;;;;5969857;39;20097;-78
2021/07/08 18:06:02;;;;;;;6.20;2.60;;;22.20;92.30;;;;;;5969936;39;20143;-79
2021/07/08 18:10:06;;;;;;;4.50;1.85;;;22.10;92.30;;;;;;5971571;39;20084;-79
2021/07/08 18:14:08;;;;;;;5.88;2.25;;;22.10;92.60;;;;;;5956551;39;20040;-77
2021/07/08 18:18:09;;;;;;;5.93;2.45;;;22.20;92.70;;;;;;5955540;39;20121;-78
2021/07/08 18:22:11;;;;;;;5.18;2.13;;;22.10;92.80;;;;;;5954596;39;20335;-77
2021/07/08 18:26:14;;;;;;;6.03;2.25;;;22.10;92.80;;;;;;5954411;39;20051;-82
2021/07/08 18:30:17;;;;;;;4.63;1.90;;;22.10;93.10;;;;;;5956427;39;20194;-77
2021/07/08 18:34:19;;;;;;;5.35;2.10;;;22.10;92.90;;;;;;5952626;39;20055;-78
2021/07/08 18:38:21;;;;;;;4.70;1.90;;;22.20;93.00;;;;;;5956796;39;20088;-77
2021/07/08 18:42:23;;;;;;;6.57;2.30;;;22.10;92.70;;;;;;5956932;39;20049;-77
2021/07/08 18:46:25;;;;;;;;;;;22.10;92.70;;;;;;5955528;39;20088;-79
2021/07/08 18:50:27;;;;;;;5.15;2.33;;;22.10;92.80;;;;;;5956488;39;19964;-78
2021/07/08 18:54:29;;;;;;;6.20;1.83;;;22.00;92.90;;;;;;5956216;39;20048;-78
2021/07/08 18:58:31;;;;;;;6.70;2.20;;;22.00;93.10;;;;;;5970773;39;20117;-74
2021/07/08 19:02:32;;;;;;;;;;;22.10;93.00;;;;;;5955642;39;20052;-74
2021/07/08 19:06:35;;;;;;;5.88;2.13;;;21.90;92.90;;;;;;5957706;39;19932;-74
2021/07/08 19:10:37;;;;;;;;;;;22.00;93.40;;;;;;5952789;39;20044;-74
2021/07/08 19:14:39;;;;;;;6.10;1.98;;;21.90;93.00;;;;;;5955372;39;19936;-75
2021/07/08 19:18:45;;;;;;;4.35;2.15;;;21.90;93.20;;;;;;5971490;39;20087;-75
2021/07/08 19:22:47;;;;;;;5.68;2.13;;;21.90;93.10;;;;;;5953679;39;20056;-74
2021/07/08 19:26:49;;;;;;;3.60;2.20;;;21.90;93.20;;;;;;5954280;39;20051;-75
2021/07/08 19:30:56;;;;;;;6.40;2.17;;;21.90;93.10;;;;;;5954227;39;20492;-74
2021/07/08 19:34:57;;;;;;;3.55;2.15;;;21.80;93.10;;;;;;5956131;39;20064;-75
2021/07/08 19:39:00;;;;;;;4.90;2.35;;;21.90;93.20;;;;;;5952226;39;20048;-75
2021/07/08 19:43:03;;;;;;;5.10;2.40;;;21.80;93.30;;;;;;5954745;39;20477;-77
2021/07/08 19:47:06;;;;;;;5.38;2.40;;;21.80;93.40;;;;;;5961322;39;20616;-75
2021/07/08 19:55:28;;;;;;;4.45;2.47;;;21.70;93.60;;;;;;5971374;39;20056;-75
2021/07/08 19:59:38;;;;;;;6.90;2.42;;;21.60;93.60;;;;;;5970938;39;20045;-74
2021/07/08 20:03:40;;;;;;;6.82;2.40;;;21.60;93.60;;;;;;5945995;39;20039;-74
2021/07/08 20:07:42;;;;;;;4.95;2.50;;;21.60;93.60;;;;;;5953540;39;20061;-74
2021/07/08 20:11:44;;;;;;;5.53;2.13;;;21.50;93.40;;;;;;5955769;40;20153;-73
2021/07/08 20:15:46;;;;;;;6.07;2.40;;;21.50;93.50;;;;;;5951133;39;20056;-73
2021/07/08 20:19:48;;;;;;;4.75;2.30;;;21.40;93.60;;;;;;5945698;40;20051;-73
2021/07/08 20:23:50;;;;;;;;;;;21.40;93.50;;;;;;5954835;40;20084;-73
2021/07/08 20:27:52;;;;;;;4.00;2.50;;;21.30;93.20;;;;;;5951163;40;20274;-73
2021/07/08 20:31:53;;;;;;;6.82;2.03;;;21.20;93.70;;;;;;5956428;39;20052;-73
2021/07/08 20:35:56;;;;;;;4.55;2.10;;;21.20;93.80;;;;;;5950080;39;20296;-73
2021/07/08 20:40:05;;;;;;;4.72;2.20;;;21.10;93.80;;;;;;5954388;39;20056;-72
2021/07/08 20:44:07;;;;;;;5.07;1.95;;;21.10;93.90;;;;;;5952721;39;20080;-73
2021/07/08 20:48:09;;;;;;;4.43;2.20;;;21.10;94.00;;;;;;5952479;39;20056;-74
2021/07/08 20:52:11;;;;;;;4.25;1.92;;;20.90;94.00;;;;;;5966014;39;20404;-74
2021/07/08 20:56:13;;;;;;;;;;;20.90;93.80;;;;;;5970055;39;20059;-74
2021/07/08 21:00:15;;;;;;;6.43;2.10;;;20.80;93.40;;;;;;5961409;39;19937;-74
2021/07/08 21:04:17;;;;;;;4.70;2.10;;;20.80;93.60;;;;;;5954410;39;20048;-74
2021/07/08 21:08:19;;;;;;;4.90;2.33;;;20.80;94.10;;;;;;5954555;39;20036;-73
2021/07/08 21:12:21;;;;;;;3.70;1.98;;;20.80;93.90;;;;;;5951240;39;20072;-74
2021/07/08 21:16:23;;;;;;;3.55;1.35;;;20.60;93.70;;;;;;5945164;39;20351;-74
2021/07/08 21:20:25;;;;;;;4.57;1.50;;;21.10;93.80;;;;;;5955043;39;20072;-74
2021/07/08 21:24:27;;;;;;;2.95;1.33;;;20.40;93.80;;;;;;5954704;39;20213;-75
2021/07/08 21:28:29;;;;;;;;;;;20.40;93.80;;;;;;5961114;39;20043;-74
2021/07/08 21:32:31;;;;;;;2.97;1.35;;;20.40;93.50;;;;;;5952182;39;20194;-74
2021/07/08 21:36:32;;;;;;;;;;;20.30;93.90;;;;;;5955410;39;20047;-73